Terminal Aerodrome Forecast
Issued by NWS

Home | Current Version | Previous Version | Text Only | Print | Product List | Glossary On
Versions: 1 2 3 4 5 6 7 8 9 10 11 12 13 14 15 16 17
529
FTUS45 KFGZ 200144 AAA
TAFSEZ
TAF AMD
KSEZ 200144Z 2002/2024 18005KT P6SM SCT008 BKN010 OVC012
      TEMPO 2002/2003 -SHRA BKN008
     FM200400 VRB03KT P6SM SCT010 BKN012 BKN020
     FM201700 VRB05KT P6SM SCT020 BKN060=

USA.gov is the U.S. government's official web portal to all federal, state and local government web resources and services.